Time;durP1;ratioP1;P1;durP2;ratioP2;P2;SDS_P1;SDS_P2;PMS_P1;PMS_P2;Temp;Humidity;BMP_temperature;BMP_pressure;BME280_temperature;BME280_humidity;BME280_pressure;Samples;Min_cycle;Max_cycle;Signal;HPM_P1;HPM_P2
2023/04/10 00:00:23;;;;;;;;;;;;;;;9.25;52.51;100529.47;1084998;54;20037;-79
2023/04/10 00:01:27;;;;;;;;;;;;;;;9.20;53.00;100532.53;1085123;54;19950;-79
2023/04/10 00:02:28;;;;;;;;;;;;;;;9.16;53.03;100528.41;1085397;47;19958;-81
2023/04/10 00:03:32;;;;;;;;;;;;;;;9.16;53.24;100527.56;1084923;54;19957;-79
2023/04/10 00:04:37;;;;;;;;;;;;;;;9.06;53.75;100530.13;1085111;54;20550;-79
2023/04/10 00:05:41;;;;;;;;;;;;;;;8.97;54.04;100536.19;1084994;54;19953;-79
2023/04/10 00:06:43;;;;;;;;;;;;;;;8.88;54.20;100530.59;1084712;54;19946;-80
2023/04/10 00:07:47;;;;;;;;;;;;;;;8.84;54.37;100529.16;1084626;54;19962;-78
2023/04/10 00:08:48;;;;;;;;;;;;;;;8.77;54.38;100538.63;1084601;54;20441;-79
2023/04/10 00:09:52;;;;;;;;;;;;;;;8.69;54.65;100538.38;1085100;54;19946;-79
2023/04/10 00:10:53;;;;;;;;;;;;;;;8.58;55.42;100537.41;1086082;39;20456;-79
2023/04/10 00:11:59;;;;;;;;;;;;;;;8.53;55.73;100539.56;1084569;54;20746;-79
2023/04/10 00:13:02;;;;;;;;;;;;;;;8.49;55.92;100538.13;1084552;54;19953;-79
2023/04/10 00:14:06;;;;;;;;;;;;;;;8.45;55.94;100535.78;1084586;54;19946;-79
2023/04/10 00:15:07;;;;;;;;;;;;;;;8.44;56.04;100532.25;1084515;54;19946;-79
2023/04/10 00:16:12;;;;;;;;;;;;;;;8.41;56.02;100536.00;1085333;39;20484;-79
2023/04/10 00:17:13;;;;;;;;;;;;;;;8.44;55.70;100534.94;1084715;54;20473;-79
2023/04/10 00:18:17;;;;;;;;;;;;;;;8.42;56.46;100539.50;1084597;47;19954;-80
2023/04/10 00:19:18;;;;;;;;;;;;;;;8.41;56.12;100535.16;1084786;54;20446;-79
2023/04/10 00:20:22;;;;;;;;;;;;;;;8.41;55.92;100533.34;1084941;54;19946;-80
2023/04/10 00:21:23;;;;;;;;;;;;;;;8.45;55.41;100531.28;1084931;54;19989;-79
2023/04/10 00:22:27;;;;;;;;;;;;;;;8.42;56.41;100534.19;1084949;54;19962;-79
2023/04/10 00:23:30;;;;;;;;;;;;;;;8.47;55.50;100533.84;1085514;39;20417;-80
2023/04/10 00:24:34;;;;;;;;;;;;;;;8.48;55.49;100533.75;1084825;54;19958;-79
2023/04/10 00:25:35;;;;;;;;;;;;;;;8.50;55.25;100529.13;1086894;39;20820;-79
2023/04/10 00:26:39;;;;;;;;;;;;;;;8.48;55.86;100531.09;1084435;54;20743;-80
2023/04/10 00:27:43;;;;;;;;;;;;;;;8.51;55.33;100533.50;1085154;54;19981;-79
2023/04/10 00:28:47;;;;;;;;;;;;;;;8.49;55.17;100538.13;1085416;54;19946;-79
2023/04/10 00:29:48;;;;;;;;;;;;;;;8.51;55.22;100527.34;1084965;54;19951;-78
2023/04/10 00:30:51;;;;;;;;;;;;;;;8.47;55.26;100524.06;1085140;46;19958;-78
2023/04/10 00:31:52;;;;;;;;;;;;;;;8.46;55.51;100530.34;1085277;54;19951;-79
2023/04/10 00:32:56;;;;;;;;;;;;;;;8.45;55.77;100525.97;1085344;54;20012;-81
2023/04/10 00:33:57;;;;;;;;;;;;;;;8.34;56.80;100529.47;1085696;54;19950;-80
2023/04/10 00:35:01;;;;;;;;;;;;;;;8.35;55.94;100533.84;1085692;54;19947;-79
2023/04/10 00:36:02;;;;;;;;;;;;;;;8.34;55.85;100524.16;1085637;54;19970;-79
2023/04/10 00:37:06;;;;;;;;;;;;;;;8.36;55.69;100526.69;1085590;54;19954;-79
2023/04/10 00:38:07;;;;;;;;;;;;;;;8.33;55.91;100518.91;1086655;39;20638;-79
2023/04/10 00:39:13;;;;;;;;;;;;;;;8.28;56.54;100524.59;1085636;54;20472;-79
2023/04/10 00:40:14;;;;;;;;;;;;;;;8.20;57.43;100527.88;1085893;54;19967;-80
2023/04/10 00:41:18;;;;;;;;;;;;;;;8.12;57.64;100524.94;1085741;54;19951;-79
2023/04/10 00:42:19;;;;;;;;;;;;;;;8.08;57.48;100515.50;1085853;54;19950;-79
2023/04/10 00:43:26;;;;;;;;;;;;;;;7.93;58.67;100513.03;1086418;39;20369;-79
2023/04/10 00:44:27;;;;;;;;;;;;;;;7.80;58.98;100521.06;1085880;54;19974;-79
2023/04/10 00:45:31;;;;;;;;;;;;;;;7.67;59.67;100519.44;1086707;39;20416;-80
2023/04/10 00:46:34;;;;;;;;;;;;;;;7.66;59.36;100518.63;1086151;54;19954;-79
2023/04/10 00:49:06;;;;;;;;;;;;;;;7.59;60.00;100509.41;1087868;54;19946;-79
2023/04/10 00:50:07;;;;;;;;;;;;;;;7.58;59.98;100511.19;1087893;54;19938;-79
2023/04/10 00:51:11;;;;;;;;;;;;;;;7.56;60.38;100507.78;1085927;54;19950;-79
2023/04/10 00:52:24;;;;;;;;;;;;;;;7.50;60.61;100505.59;1086985;54;19923;-79
2023/04/10 00:53:25;;;;;;;;;;;;;;;7.55;59.92;100514.09;1088173;54;19938;-80
2023/04/10 00:54:39;;;;;;;;;;;;;;;7.58;59.37;100510.34;1088246;54;20020;-80
2023/04/10 00:55:41;;;;;;;;;;;;;;;7.60;59.54;100509.28;1089148;46;19951;-79
2023/04/10 00:56:45;;;;;;;;;;;;;;;7.63;59.20;100506.41;1088056;54;19938;-80
2023/04/10 00:57:46;;;;;;;;;;;;;;;7.66;59.18;100507.97;1088181;47;19950;-81
2023/04/10 00:58:54;;;;;;;;;;;;;;;7.70;58.64;100508.59;1087998;54;19943;-80
2023/04/10 00:59:55;;;;;;;;;;;;;;;7.76;58.49;100506.31;1087937;54;20018;-80
2023/04/10 01:01:07;;;;;;;;;;;;;;;7.79;58.50;100507.91;1088108;54;19983;-80
2023/04/10 01:02:10;;;;;;;;;;;;;;;7.69;59.55;100506.88;1089674;46;19934;-80
2023/04/10 01:03:17;;;;;;;;;;;;;;;7.70;59.32;100509.41;1088649;47;19943;-80
2023/04/10 01:04:21;;;;;;;;;;;;;;;7.74;59.10;100510.91;1089947;46;19939;-80
2023/04/10 01:05:25;;;;;;;;;;;;;;;7.79;58.53;100503.41;1090010;46;20015;-80
2023/04/10 01:06:46;;;;;;;;;;;;;;;7.81;58.37;100508.63;1088223;54;19966;-80
2023/04/10 01:08:04;;;;;;;;;;;;;;;7.80;58.62;100501.63;1087817;54;19939;-80
2023/04/10 01:09:09;;;;;;;;;;;;;;;7.81;58.36;100501.47;1088057;46;19950;-80
2023/04/10 01:10:17;;;;;;;;;;;;;;;7.81;58.45;100506.81;1086578;54;19965;-79
2023/04/10 01:11:23;;;;;;;;;;;;;;;7.82;58.34;100502.34;1086676;54;19950;-80
2023/04/10 01:12:35;;;;;;;;;;;;;;;7.84;58.19;100502.22;1086461;54;19951;-79
2023/04/10 01:13:42;;;;;;;;;;;;;;;7.85;57.99;100506.59;1086615;54;19950;-79
2023/04/10 01:14:54;;;;;;;;;;;;;;;7.86;57.97;100503.78;1086055;54;20532;-81
2023/04/10 01:15:57;;;;;;;;;;;;;;;7.86;58.14;100503.78;1086389;54;19951;-80
2023/04/10 01:17:05;;;;;;;;;;;;;;;7.87;58.06;100516.16;1086519;54;20528;-81
2023/04/10 01:18:10;;;;;;;;;;;;;;;7.84;58.36;100512.88;1086429;54;19951;-80
2023/04/10 01:19:20;;;;;;;;;;;;;;;7.76;59.06;100511.66;1086122;54;19958;-79
2023/04/10 01:20:22;;;;;;;;;;;;;;;7.70;59.37;100514.75;1087381;54;19935;-80
2023/04/10 01:21:33;;;;;;;;;;;;;;;7.72;58.61;100514.66;1087360;47;19939;-80
2023/04/10 01:22:37;;;;;;;;;;;;;;;7.72;58.95;100519.97;1087009;54;19950;-80
2023/04/10 01:23:58;;;;;;;;;;;;;;;7.73;58.67;100516.34;1087002;54;19989;-80
2023/04/10 01:25:14;;;;;;;;;;;;;;;7.77;58.59;100520.47;1087006;54;19946;-80
2023/04/10 01:26:20;;;;;;;;;;;;;;;7.77;58.52;100516.00;1087072;54;19946;-80
2023/04/10 01:27:29;;;;;;;;;;;;;;;7.81;58.44;100516.63;1087109;54;19973;-80
2023/04/10 01:28:48;;;;;;;;;;;;;;;7.83;58.07;100522.69;1087053;54;19962;-80
2023/04/10 01:29:51;;;;;;;;;;;;;;;7.80;59.03;100517.59;1087627;39;20467;-80
2023/04/10 01:30:59;;;;;;;;;;;;;;;7.81;58.64;100524.59;1087135;54;19954;-79
2023/04/10 01:32:04;;;;;;;;;;;;;;;7.72;59.39;100525.28;1086847;54;19943;-79
2023/04/10 01:33:09;;;;;;;;;;;;;;;7.61;59.72;100524.28;1086834;54;19947;-80
2023/04/10 01:34:17;;;;;;;;;;;;;;;7.50;60.56;100521.56;1086848;54;19981;-80
2023/04/10 01:35:18;;;;;;;;;;;;;;;7.44;61.05;100525.50;1086634;54;19957;-79
2023/04/10 01:36:25;;;;;;;;;;;;;;;7.44;61.07;100524.69;1086709;54;20035;-79
2023/04/10 01:37:28;;;;;;;;;;;;;;;7.52;60.37;100527.63;1086761;54;20870;-80
2023/04/10 01:38:33;;;;;;;;;;;;;;;7.50;60.75;100524.22;1089437;39;20509;-80
2023/04/10 01:39:39;;;;;;;;;;;;;;;7.52;60.35;100513.44;1086813;54;19958;-79
2023/04/10 01:40:47;;;;;;;;;;;;;;;7.54;60.44;100517.72;1086740;54;19939;-79
2023/04/10 01:41:52;;;;;;;;;;;;;;;7.53;60.77;100523.13;1086683;54;19982;-79
2023/04/10 01:42:55;;;;;;;;;;;;;;;7.36;61.87;100516.41;1086803;54;19942;-79
2023/04/10 01:44:04;;;;;;;;;;;;;;;7.25;62.78;100526.03;1086722;54;19977;-79
2023/04/10 01:45:08;;;;;;;;;;;;;;;7.26;62.16;100525.06;1086825;54;20002;-78
2023/04/10 01:46:14;;;;;;;;;;;;;;;7.21;62.89;100526.38;1087005;54;20003;-80
2023/04/10 01:47:16;;;;;;;;;;;;;;;7.18;62.85;100519.44;1087413;54;19942;-79
2023/04/10 01:48:20;;;;;;;;;;;;;;;7.17;62.75;100523.91;1089346;39;20856;-79
2023/04/10 01:49:23;;;;;;;;;;;;;;;7.15;62.84;100527.66;1087250;54;19943;-79
2023/04/10 01:50:27;;;;;;;;;;;;;;;7.14;62.80;100517.97;1088490;47;20630;-79
2023/04/10 01:51:30;;;;;;;;;;;;;;;7.21;62.01;100524.53;1086741;54;19946;-80
2023/04/10 01:52:34;;;;;;;;;;;;;;;7.15;62.72;100525.81;1086179;54;19951;-79
2023/04/10 01:53:35;;;;;;;;;;;;;;;7.13;62.49;100522.41;1086162;54;19950;-78
2023/04/10 01:54:40;;;;;;;;;;;;;;;7.13;62.30;100516.28;1086261;54;19958;-79
2023/04/10 01:55:41;;;;;;;;;;;;;;;7.20;62.06;100516.69;1086298;54;19942;-79
2023/04/10 01:56:46;;;;;;;;;;;;;;;7.19;61.70;100518.47;1086402;54;19997;-80
2023/04/10 01:57:48;;;;;;;;;;;;;;;7.09;62.37;100520.09;1086286;54;20809;-79
2023/04/10 01:58:52;;;;;;;;;;;;;;;7.08;61.67;100518.44;1086165;54;20904;-79
2023/04/10 01:59:56;;;;;;;;;;;;;;;7.01;62.29;100516.19;1086122;54;19950;-79
2023/04/10 02:01:00;;;;;;;;;;;;;;;6.97;62.63;100517.38;1086090;54;19951;-79
2023/04/10 02:02:01;;;;;;;;;;;;;;;6.93;62.71;100515.91;1086217;54;19951;-79
2023/04/10 02:03:05;;;;;;;;;;;;;;;6.89;62.76;100519.75;1086350;54;20020;-79
2023/04/10 02:04:06;;;;;;;;;;;;;;;6.90;62.61;100520.59;1086405;54;19977;-79
2023/04/10 02:05:12;;;;;;;;;;;;;;;6.96;61.79;100526.31;1086460;54;19946;-78
2023/04/10 02:06:17;;;;;;;;;;;;;;;6.87;62.65;100519.00;1087752;39;20810;-80
2023/04/10 02:07:23;;;;;;;;;;;;;;;6.79;62.63;100524.00;1086367;54;19950;-79
2023/04/10 02:08:30;;;;;;;;;;;;;;;6.74;62.89;100511.06;1086418;54;19954;-79
2023/04/10 02:09:39;;;;;;;;;;;;;;;6.82;62.01;100514.00;1086201;54;19946;-82
2023/04/10 02:10:43;;;;;;;;;;;;;;;6.78;62.24;100524.97;1086577;54;19974;-80
2023/04/10 02:11:50;;;;;;;;;;;;;;;6.73;62.31;100519.97;1086760;54;19951;-80
2023/04/10 02:12:55;;;;;;;;;;;;;;;6.68;62.50;100520.31;1087172;54;19950;-79
2023/04/10 02:14:02;;;;;;;;;;;;;;;6.59;62.87;100520.94;1087063;54;19945;-79
2023/04/10 02:15:07;;;;;;;;;;;;;;;6.54;62.76;100520.41;1087021;54;19951;-79
2023/04/10 02:16:11;;;;;;;;;;;;;;;6.50;63.06;100518.94;1090572;39;20661;-79
2023/04/10 02:17:13;;;;;;;;;;;;;;;6.49;62.83;100522.53;1086947;54;19955;-79
2023/04/10 02:18:18;;;;;;;;;;;;;;;6.54;62.64;100518.63;1086988;54;19998;-80
2023/04/10 02:19:19;;;;;;;;;;;;;;;6.57;62.44;100514.88;1086882;54;19943;-79
2023/04/10 02:20:25;;;;;;;;;;;;;;;6.61;62.13;100521.69;1087852;54;19949;-80
2023/04/10 02:21:27;;;;;;;;;;;;;;;6.60;62.18;100519.13;1087927;54;19966;-79
2023/04/10 02:22:32;;;;;;;;;;;;;;;6.58;62.14;100527.22;1088069;54;19942;-81
2023/04/10 02:23:34;;;;;;;;;;;;;;;6.51;62.46;100532.09;1088274;54;19947;-81
2023/04/10 02:24:41;;;;;;;;;;;;;;;6.54;62.33;100531.03;1087944;54;19946;-79
2023/04/10 02:25:42;;;;;;;;;;;;;;;6.54;62.31;100526.59;1088175;54;19939;-79
2023/04/10 02:27:00;;;;;;;;;;;;;;;6.53;62.46;100524.88;1088141;54;19930;-80
2023/04/10 02:28:03;;;;;;;;;;;;;;;6.61;61.87;100527.00;1088020;54;19943;-80
2023/04/10 02:29:23;;;;;;;;;;;;;;;6.63;61.72;100525.06;1088406;47;19965;-80
2023/04/10 02:30:28;;;;;;;;;;;;;;;6.64;61.77;100526.78;1088976;47;19957;-80
2023/04/10 02:31:32;;;;;;;;;;;;;;;6.64;61.55;100529.44;1090083;47;19970;-79
2023/04/10 02:32:34;;;;;;;;;;;;;;;6.60;61.72;100527.97;1087359;47;19962;-79
2023/04/10 02:33:38;;;;;;;;;;;;;;;6.59;61.68;100531.56;1087258;54;19950;-79
2023/04/10 02:34:39;;;;;;;;;;;;;;;6.59;61.39;100523.59;1085657;54;19950;-78
2023/04/10 02:35:43;;;;;;;;;;;;;;;6.62;61.15;100527.84;1085138;47;20702;-79
2023/04/10 02:36:44;;;;;;;;;;;;;;;6.61;61.12;100531.47;1084969;54;19969;-79
2023/04/10 02:37:49;;;;;;;;;;;;;;;6.62;61.18;100533.16;1085556;54;19950;-79
2023/04/10 02:38:50;;;;;;;;;;;;;;;6.62;61.34;100528.69;1085088;54;20473;-79
2023/04/10 02:39:56;;;;;;;;;;;;;;;6.64;61.33;100537.41;1085151;54;19981;-79
2023/04/10 02:40:57;;;;;;;;;;;;;;;6.66;61.17;100532.84;1085419;54;19947;-79
2023/04/10 02:42:01;;;;;;;;;;;;;;;6.64;61.11;100531.25;1085469;54;19973;-79
2023/04/10 02:43:02;;;;;;;;;;;;;;;6.66;60.94;100530.19;1085563;54;19947;-79
2023/04/10 02:44:07;;;;;;;;;;;;;;;6.67;61.02;100528.38;1088467;39;20399;-79
2023/04/10 02:45:08;;;;;;;;;;;;;;;6.61;61.58;100527.00;1088191;46;19954;-80
2023/04/10 02:46:15;;;;;;;;;;;;;;;6.61;61.42;100527.00;1086582;54;20453;-80
2023/04/10 02:47:17;;;;;;;;;;;;;;;6.59;61.61;100523.59;1086365;54;19958;-79
2023/04/10 02:48:22;;;;;;;;;;;;;;;6.57;61.81;100530.81;1087500;54;19943;-79
2023/04/10 02:49:23;;;;;;;;;;;;;;;6.56;61.49;100529.13;1085757;54;19947;-78
2023/04/10 02:50:28;;;;;;;;;;;;;;;6.55;61.70;100530.94;1084638;54;19950;-80
2023/04/10 02:51:34;;;;;;;;;;;;;;;6.53;61.83;100529.31;1085072;54;19970;-79
2023/04/10 02:52:37;;;;;;;;;;;;;;;6.54;61.52;100531.03;1085158;54;20391;-79
2023/04/10 02:53:45;;;;;;;;;;;;;;;6.52;61.64;100531.16;1086514;54;19950;-78
2023/04/10 02:54:49;;;;;;;;;;;;;;;6.53;61.88;100529.31;1088031;46;20027;-80
2023/04/10 02:55:51;;;;;;;;;;;;;;;6.51;61.83;100529.44;1088309;46;19958;-80
2023/04/10 02:56:55;;;;;;;;;;;;;;;6.54;61.90;100531.91;1088377;54;19938;-80
2023/04/10 02:57:56;;;;;;;;;;;;;;;6.55;61.49;100532.72;1088347;54;19963;-80
2023/04/10 02:59:01;;;;;;;;;;;;;;;6.53;61.91;100524.88;1088338;54;19953;-81
2023/04/10 03:00:08;;;;;;;;;;;;;;;6.54;61.96;100534.56;1088521;54;19945;-80
2023/04/10 03:01:12;;;;;;;;;;;;;;;6.56;61.64;100524.66;1088420;54;19923;-81
2023/04/10 03:02:15;;;;;;;;;;;;;;;6.58;61.79;100526.34;1087883;54;19987;-81
2023/04/10 03:03:19;;;;;;;;;;;;;;;6.55;62.20;100522.09;1088184;54;20000;-81
2023/04/10 03:04:32;;;;;;;;;;;;;;;6.49;62.80;100525.19;1088056;54;19975;-81
2023/04/10 03:05:36;;;;;;;;;;;;;;;6.46;62.50;100522.75;1087903;54;19962;-80
2023/04/10 03:06:37;;;;;;;;;;;;;;;6.45;62.46;100521.03;1086862;54;19950;-80
2023/04/10 03:07:41;;;;;;;;;;;;;;;6.44;62.65;100516.69;1086288;54;19958;-81
2023/04/10 03:08:42;;;;;;;;;;;;;;;6.43;62.92;100514.97;1086665;54;19950;-79
2023/04/10 03:09:46;;;;;;;;;;;;;;;6.41;62.79;100520.41;1086865;54;20565;-81
2023/04/10 03:10:47;;;;;;;;;;;;;;;6.40;62.86;100522.22;1086780;54;19951;-80
2023/04/10 03:11:51;;;;;;;;;;;;;;;6.42;62.75;100510.66;1086839;54;20446;-81
2023/04/10 03:12:52;;;;;;;;;;;;;;;6.43;62.39;100517.63;1085876;54;19951;-80
2023/04/10 03:13:57;;;;;;;;;;;;;;;6.46;62.28;100513.00;1085833;54;19947;-80
2023/04/10 03:14:58;;;;;;;;;;;;;;;6.49;62.17;100511.94;1085825;54;20078;-80
2023/04/10 03:16:02;;;;;;;;;;;;;;;6.47;62.39;100511.19;1085772;54;19951;-80
2023/04/10 03:17:03;;;;;;;;;;;;;;;6.45;62.68;100518.38;1085801;54;19947;-80
2023/04/10 03:18:09;;;;;;;;;;;;;;;6.46;62.36;100506.81;1086393;54;19951;-80
2023/04/10 03:19:13;;;;;;;;;;;;;;;6.46;62.72;100510.34;1086155;54;19958;-80
2023/04/10 03:20:15;;;;;;;;;;;;;;;6.49;62.39;100507.44;1085484;54;21327;-80
2023/04/10 03:21:20;;;;;;;;;;;;;;;6.51;61.94;100510.84;1086734;54;19949;-81
2023/04/10 03:22:21;;;;;;;;;;;;;;;6.50;62.02;100500.34;1087108;54;19965;-81
2023/04/10 03:23:25;;;;;;;;;;;;;;;6.49;62.23;100501.28;1086859;54;19954;-81
2023/04/10 03:24:26;;;;;;;;;;;;;;;6.47;62.09;100500.53;1086977;54;19970;-81
2023/04/10 03:25:31;;;;;;;;;;;;;;;6.45;62.63;100508.63;1087000;54;19953;-81
2023/04/10 03:26:32;;;;;;;;;;;;;;;6.45;62.45;100499.78;1087420;54;20059;-81
2023/04/10 03:27:35;;;;;;;;;;;;;;;6.48;62.37;100507.56;1087575;54;19946;-80
2023/04/10 03:28:37;;;;;;;;;;;;;;;6.46;62.43;100502.38;1087603;54;19950;-82
2023/04/10 03:29:42;;;;;;;;;;;;;;;6.49;62.09;100493.34;1090089;31;20702;-81
2023/04/10 03:30:44;;;;;;;;;;;;;;;6.50;62.42;100497.69;1087658;54;20539;-81
2023/04/10 03:31:47;;;;;;;;;;;;;;;6.52;62.14;100493.97;1087517;54;19950;-81
2023/04/10 03:32:49;;;;;;;;;;;;;;;6.54;61.84;100494.72;1088582;39;20615;-81
2023/04/10 03:33:55;;;;;;;;;;;;;;;6.57;61.86;100485.66;1086578;46;19947;-81
2023/04/10 03:34:57;;;;;;;;;;;;;;;6.61;61.87;100489.81;1086768;54;19946;-80
2023/04/10 03:36:01;;;;;;;;;;;;;;;6.63;61.84;100492.34;1086882;47;19950;-81
2023/04/10 03:37:05;;;;;;;;;;;;;;;6.54;62.53;100485.88;1087709;39;20529;-81
2023/04/10 03:38:06;;;;;;;;;;;;;;;6.48;63.18;100499.59;1087020;54;19962;-81
2023/04/10 03:39:10;;;;;;;;;;;;;;;6.42;63.80;100498.22;1090013;39;20448;-82
2023/04/10 03:40:11;;;;;;;;;;;;;;;6.34;64.25;100490.78;1087452;54;20852;-81
2023/04/10 03:41:15;;;;;;;;;;;;;;;6.35;63.82;100494.28;1087349;54;20551;-80
2023/04/10 03:42:16;;;;;;;;;;;;;;;6.34;63.75;100498.75;1086670;54;19950;-80
2023/04/10 03:43:20;;;;;;;;;;;;;;;6.29;64.56;100495.56;1086703;54;19953;-81
2023/04/10 03:44:24;;;;;;;;;;;;;;;6.28;64.53;100498.34;1087194;54;20555;-81
2023/04/10 03:45:27;;;;;;;;;;;;;;;6.30;63.97;100502.56;1086929;54;20461;-82
2023/04/10 03:46:29;;;;;;;;;;;;;;;6.36;63.59;100493.34;1088469;39;20469;-80
2023/04/10 03:47:33;;;;;;;;;;;;;;;6.40;63.49;100487.72;1086766;54;19977;-81
2023/04/10 03:48:34;;;;;;;;;;;;;;;6.43;63.18;100491.09;1085976;54;19965;-81
2023/04/10 03:49:40;;;;;;;;;;;;;;;6.42;63.46;100495.56;1086980;39;20234;-82
2023/04/10 03:50:41;;;;;;;;;;;;;;;6.39;63.46;100491.31;1085928;54;19947;-81
2023/04/10 03:51:45;;;;;;;;;;;;;;;6.38;63.28;100484.31;1085896;54;19947;-80
2023/04/10 03:52:48;;;;;;;;;;;;;;;6.41;63.34;100483.22;1086229;54;20560;-82
2023/04/10 03:53:53;;;;;;;;;;;;;;;6.45;62.73;100486.53;1087018;39;20208;-80
2023/04/10 03:54:55;;;;;;;;;;;;;;;6.46;62.81;100485.56;1086256;54;19973;-80
2023/04/10 03:55:59;;;;;;;;;;;;;;;6.48;62.68;100486.31;1086033;54;19950;-80
2023/04/10 03:57:00;;;;;;;;;;;;;;;6.49;62.51;100488.03;1086437;54;19988;-81
2023/04/10 03:58:07;;;;;;;;;;;;;;;6.51;62.55;100483.44;1086422;54;19954;-81
2023/04/10 03:59:08;;;;;;;;;;;;;;;6.50;62.48;100487.06;1086706;54;19949;-82
2023/04/10 04:00:12;;;;;;;;;;;;;;;6.51;62.51;100483.44;1087349;54;19935;-81
2023/04/10 04:01:13;;;;;;;;;;;;;;;6.53;62.42;100489.47;1087320;54;20500;-80
2023/04/10 04:02:17;;;;;;;;;;;;;;;6.55;62.27;100484.91;1087589;54;19954;-81
2023/04/10 04:03:18;;;;;;;;;;;;;;;6.56;62.23;100489.28;1087863;54;19938;-81
2023/04/10 04:04:22;;;;;;;;;;;;;;;6.53;62.25;100487.69;1087708;54;19943;-81
2023/04/10 04:05:26;;;;;;;;;;;;;;;6.53;62.29;100486.81;1088552;46;19942;-81
2023/04/10 04:06:31;;;;;;;;;;;;;;;6.54;62.52;100475.25;1087911;46;19943;-81
2023/04/10 04:07:33;;;;;;;;;;;;;;;6.50;62.50;100484.41;1087081;46;19950;-81
2023/04/10 04:08:37;;;;;;;;;;;;;;;6.51;62.68;100484.28;1087111;54;19938;-80
2023/04/10 04:09:39;;;;;;;;;;;;;;;6.53;62.60;100478.84;1086016;54;19959;-80
2023/04/10 04:10:43;;;;;;;;;;;;;;;6.54;62.34;100477.91;1085737;54;19969;-80
2023/04/10 04:11:44;;;;;;;;;;;;;;;6.48;62.79;100479.19;1085482;54;20002;-80
2023/04/10 04:12:48;;;;;;;;;;;;;;;6.49;62.95;100480.06;1085536;54;19981;-80
2023/04/10 04:13:50;;;;;;;;;;;;;;;6.49;62.51;100480.88;1086213;46;20590;-80
2023/04/10 04:14:54;;;;;;;;;;;;;;;6.49;62.88;100472.91;1085774;54;19946;-80
2023/04/10 04:15:55;;;;;;;;;;;;;;;6.49;62.66;100467.59;1085825;54;19954;-81
2023/04/10 04:16:59;;;;;;;;;;;;;;;6.44;63.33;100461.78;1085952;54;19954;-80
2023/04/10 04:18:00;;;;;;;;;;;;;;;6.40;63.35;100471.78;1086683;54;19949;-81
2023/04/10 04:19:04;;;;;;;;;;;;;;;6.41;63.08;100475.25;1086220;54;19947;-81
2023/04/10 04:20:09;;;;;;;;;;;;;;;6.39;63.20;100469.19;1088645;46;19942;-80
2023/04/10 04:21:16;;;;;;;;;;;;;;;6.38;63.18;100468.38;1087009;46;19947;-81
2023/04/10 04:22:17;;;;;;;;;;;;;;;6.35;63.49;100473.88;1088464;46;19939;-81
2023/04/10 04:23:21;;;;;;;;;;;;;;;6.34;63.80;100469.53;1085871;54;19950;-79
2023/04/10 04:24:22;;;;;;;;;;;;;;;6.32;63.66;100474.13;1085990;54;19951;-79
2023/04/10 04:25:28;;;;;;;;;;;;;;;6.34;63.62;100469.53;1085780;54;19969;-81
2023/04/10 04:26:29;;;;;;;;;;;;;;;6.37;63.21;100463.19;1086159;54;19953;-81
2023/04/10 04:27:34;;;;;;;;;;;;;;;6.41;63.20;100467.28;1087154;39;20511;-81
2023/04/10 04:28:35;;;;;;;;;;;;;;;6.45;62.98;100462.63;1086604;54;20497;-80
2023/04/10 04:29:41;;;;;;;;;;;;;;;6.48;62.89;100462.41;1086636;54;19954;-81
2023/04/10 04:30:45;;;;;;;;;;;;;;;6.50;62.75;100461.34;1087365;54;19966;-80
2023/04/10 04:31:46;;;;;;;;;;;;;;;6.48;62.55;100462.41;1087178;54;19946;-81
2023/04/10 04:32:50;;;;;;;;;;;;;;;6.49;62.42;100466.78;1086945;54;19947;-82
2023/04/10 04:33:54;;;;;;;;;;;;;;;6.49;62.25;100464.09;1086648;54;19981;-80
2023/04/10 04:34:57;;;;;;;;;;;;;;;6.46;62.61;100464.31;1087387;54;19946;-80
2023/04/10 04:36:00;;;;;;;;;;;;;;;6.42;62.53;100462.84;1086607;54;20431;-81
2023/04/10 04:37:06;;;;;;;;;;;;;;;6.38;62.15;100467.50;1087189;54;19946;-82
2023/04/10 04:38:07;;;;;;;;;;;;;;;6.36;62.10;100470.28;1087346;54;19962;-81
2023/04/10 04:39:12;;;;;;;;;;;;;;;6.38;62.10;100468.38;1086999;39;20398;-82
2023/04/10 04:40:13;;;;;;;;;;;;;;;6.40;61.91;100470.91;1086297;54;19947;-80
2023/04/10 04:41:17;;;;;;;;;;;;;;;6.45;61.67;100474.09;1086298;54;19950;-81
2023/04/10 04:42:18;;;;;;;;;;;;;;;6.47;61.64;100466.84;1086196;54;19951;-81
2023/04/10 04:43:22;;;;;;;;;;;;;;;6.52;61.54;100470.06;1085991;54;19977;-80
2023/04/10 04:44:23;;;;;;;;;;;;;;;6.55;61.46;100469.84;1085990;46;19950;-81
2023/04/10 04:45:28;;;;;;;;;;;;;;;6.58;61.48;100463.47;1086071;54;20002;-81
2023/04/10 04:46:29;;;;;;;;;;;;;;;6.60;61.36;100466.00;1085972;54;19946;-81
2023/04/10 04:47:33;;;;;;;;;;;;;;;6.61;61.42;100459.72;1085684;54;19943;-81
2023/04/10 04:48:34;;;;;;;;;;;;;;;6.59;61.35;100465.16;1085322;54;19973;-80
2023/04/10 04:49:38;;;;;;;;;;;;;;;6.60;61.54;100466.88;1085315;54;20765;-80
2023/04/10 04:50:40;;;;;;;;;;;;;;;6.62;61.30;100464.94;1085609;54;20473;-80
2023/04/10 04:51:44;;;;;;;;;;;;;;;6.57;61.54;100461.75;1085839;54;19951;-80
2023/04/10 04:52:48;;;;;;;;;;;;;;;6.53;61.10;100463.78;1085498;54;19951;-80
2023/04/10 04:53:52;;;;;;;;;;;;;;;6.53;61.64;100463.78;1086417;46;19953;-81
2023/04/10 04:54:55;;;;;;;;;;;;;;;6.49;61.35;100464.94;1085867;54;19951;-80
2023/04/10 04:55:58;;;;;;;;;;;;;;;6.48;61.32;100476.53;1085632;54;19957;-80
2023/04/10 04:57:00;;;;;;;;;;;;;;;6.48;61.52;100478.34;1085551;54;19954;-79
2023/04/10 04:58:04;;;;;;;;;;;;;;;6.46;61.78;100480.25;1085237;54;19950;-81
2023/04/10 04:59:06;;;;;;;;;;;;;;;6.51;61.78;100472.84;1085100;54;19981;-81
2023/04/10 05:00:10;;;;;;;;;;;;;;;6.55;61.70;100474.28;1085505;54;20057;-80
2023/04/10 05:01:11;;;;;;;;;;;;;;;6.61;61.37;100463.25;1085627;54;19954;-80
2023/04/10 05:02:17;;;;;;;;;;;;;;;6.63;61.42;100479.91;1085608;54;20026;-81
2023/04/10 05:03:18;;;;;;;;;;;;;;;6.66;61.07;100474.38;1085781;54;19942;-80
2023/04/10 05:04:22;;;;;;;;;;;;;;;6.73;61.05;100480.13;1085772;54;20021;-80
2023/04/10 05:05:24;;;;;;;;;;;;;;;6.77;60.83;100472.78;1085768;54;19973;-81
2023/04/10 05:06:28;;;;;;;;;;;;;;;6.82;60.61;100476.81;1087405;39;20436;-80
2023/04/10 05:07:29;;;;;;;;;;;;;;;6.84;60.68;100474.03;1085600;54;19950;-80
2023/04/10 05:08:35;;;;;;;;;;;;;;;6.89;60.49;100477.22;1085968;39;20344;-81
2023/04/10 05:09:36;;;;;;;;;;;;;;;6.91;60.56;100477.94;1085935;54;20741;-81
2023/04/10 05:10:41;;;;;;;;;;;;;;;6.91;60.79;100477.94;1086098;54;19950;-81
2023/04/10 05:11:42;;;;;;;;;;;;;;;6.89;61.20;100481.66;1085828;54;19970;-81
2023/04/10 05:12:46;;;;;;;;;;;;;;;6.84;61.92;100482.00;1085528;54;19970;-80
2023/04/10 05:13:48;;;;;;;;;;;;;;;6.72;62.24;100481.06;1085236;54;19947;-80
2023/04/10 05:14:52;;;;;;;;;;;;;;;6.71;62.30;100482.03;1085678;54;19977;-81
2023/04/10 05:15:53;;;;;;;;;;;;;;;6.74;62.54;100483.63;1085779;54;20464;-81
2023/04/10 05:16:57;;;;;;;;;;;;;;;6.79;62.25;100484.16;1085723;54;19950;-81
2023/04/10 05:17:58;;;;;;;;;;;;;;;6.65;62.89;100483.31;1085830;54;19946;-80
2023/04/10 05:19:02;;;;;;;;;;;;;;;6.49;63.75;100483.53;1085913;54;19951;-80
2023/04/10 05:20:06;;;;;;;;;;;;;;;6.32;64.37;100487.41;1085398;54;19946;-80
2023/04/10 05:21:10;;;;;;;;;;;;;;;6.21;64.42;100487.28;1085709;54;19954;-81
2023/04/10 05:22:14;;;;;;;;;;;;;;;6.18;64.37;100485.69;1084794;54;19951;-81
2023/04/10 05:23:16;;;;;;;;;;;;;;;6.17;64.52;100491.09;1086204;39;20522;-81
2023/04/10 05:24:23;;;;;;;;;;;;;;;6.05;65.09;100490.97;1085828;54;19957;-81
2023/04/10 05:25:25;;;;;;;;;;;;;;;5.94;65.19;100486.38;1085865;54;19954;-80
2023/04/10 05:26:29;;;;;;;;;;;;;;;5.82;65.57;100491.66;1085788;54;20034;-80
2023/04/10 05:27:33;;;;;;;;;;;;;;;5.77;65.95;100499.94;1085459;54;19973;-79
2023/04/10 05:28:34;;;;;;;;;;;;;;;5.77;65.85;100494.63;1086007;54;19943;-81
2023/04/10 05:29:38;;;;;;;;;;;;;;;5.74;66.08;100487.72;1086146;54;19947;-80
2023/04/10 05:30:42;;;;;;;;;;;;;;;5.67;66.35;100499.69;1086249;54;19966;-81
2023/04/10 05:31:45;;;;;;;;;;;;;;;5.63;66.64;100496.38;1086193;54;19966;-81
2023/04/10 05:32:49;;;;;;;;;;;;;;;5.60;66.77;100501.91;1085970;54;19999;-81
2023/04/10 05:33:50;;;;;;;;;;;;;;;5.55;66.75;100492.56;1086274;54;19951;-82
2023/04/10 05:34:54;;;;;;;;;;;;;;;5.59;66.69;100494.03;1086507;54;20006;-81